sensor_id;sensor_type;location;lat;lon;timestamp;pressure;altitude;pressure_sealevel;temperature;humidity
38900;BME280;24660;43.238;26.576;2022-11-15T00:01:33;100241.84;;;7.26;100.00
38900;BME280;24660;43.238;26.576;2022-11-15T00:03:58;100237.06;;;7.33;100.00
38900;BME280;24660;43.238;26.576;2022-11-15T00:06:24;100232.50;;;7.51;100.00
38900;BME280;24660;43.238;26.576;2022-11-15T00:08:49;100229.31;;;7.28;100.00
38900;BME280;24660;43.238;26.576;2022-11-15T00:11:14;100220.06;;;7.20;100.00
38900;BME280;24660;43.238;26.576;2022-11-15T00:13:40;100226.53;;;7.14;100.00
38900;BME280;24660;43.238;26.576;2022-11-15T00:16:05;100229.63;;;7.06;100.00
38900;BME280;24660;43.238;26.576;2022-11-15T00:18:31;100223.19;;;7.10;100.00
38900;BME280;24660;43.238;26.576;2022-11-15T00:21:02;100228.63;;;7.25;100.00
38900;BME280;24660;43.238;26.576;2022-11-15T00:23:28;100222.34;;;7.10;100.00
38900;BME280;24660;43.238;26.576;2022-11-15T00:25:55;100226.22;;;7.20;100.00
38900;BME280;24660;43.238;26.576;2022-11-15T00:28:21;100220.13;;;7.18;100.00
38900;BME280;24660;43.238;26.576;2022-11-15T00:30:46;100217.63;;;7.31;100.00
38900;BME280;24660;43.238;26.576;2022-11-15T00:33:12;100213.53;;;7.41;100.00
38900;BME280;24660;43.238;26.576;2022-11-15T00:35:37;100219.47;;;7.46;100.00
38900;BME280;24660;43.238;26.576;2022-11-15T00:38:02;100212.59;;;7.42;100.00
38900;BME280;24660;43.238;26.576;2022-11-15T00:40:28;100215.25;;;7.42;100.00
38900;BME280;24660;43.238;26.576;2022-11-15T00:42:53;100215.34;;;7.40;100.00
38900;BME280;24660;43.238;26.576;2022-11-15T00:45:19;100213.22;;;7.47;100.00
38900;BME280;24660;43.238;26.576;2022-11-15T00:47:44;100206.69;;;7.53;100.00
38900;BME280;24660;43.238;26.576;2022-11-15T00:50:10;100201.19;;;7.40;100.00
38900;BME280;24660;43.238;26.576;2022-11-15T00:52:36;100200.63;;;7.18;100.00
38900;BME280;24660;43.238;26.576;2022-11-15T00:55:01;100205.25;;;6.98;100.00
38900;BME280;24660;43.238;26.576;2022-11-15T00:57:26;100209.41;;;7.04;100.00
38900;BME280;24660;43.238;26.576;2022-11-15T00:59:52;100206.88;;;7.01;100.00
38900;BME280;24660;43.238;26.576;2022-11-15T01:02:17;100209.75;;;7.13;100.00
38900;BME280;24660;43.238;26.576;2022-11-15T01:04:43;100209.56;;;7.17;100.00
38900;BME280;24660;43.238;26.576;2022-11-15T01:07:08;100200.50;;;7.36;100.00
38900;BME280;24660;43.238;26.576;2022-11-15T01:09:33;100201.53;;;7.34;100.00
38900;BME280;24660;43.238;26.576;2022-11-15T01:11:59;100200.31;;;7.24;100.00
38900;BME280;24660;43.238;26.576;2022-11-15T01:14:24;100196.72;;;7.40;100.00
38900;BME280;24660;43.238;26.576;2022-11-15T01:16:49;100198.34;;;7.43;100.00
38900;BME280;24660;43.238;26.576;2022-11-15T01:19:15;100188.84;;;7.39;100.00
38900;BME280;24660;43.238;26.576;2022-11-15T01:21:40;100181.97;;;7.51;100.00
38900;BME280;24660;43.238;26.576;2022-11-15T01:24:05;100181.88;;;7.21;100.00
38900;BME280;24660;43.238;26.576;2022-11-15T01:26:31;100180.41;;;7.15;100.00
38900;BME280;24660;43.238;26.576;2022-11-15T01:28:56;100180.75;;;7.25;100.00
38900;BME280;24660;43.238;26.576;2022-11-15T01:31:21;100178.00;;;7.10;100.00
38900;BME280;24660;43.238;26.576;2022-11-15T01:33:47;100176.47;;;7.06;100.00
38900;BME280;24660;43.238;26.576;2022-11-15T01:36:14;100185.31;;;7.07;100.00
38900;BME280;24660;43.238;26.576;2022-11-15T01:38:39;100185.56;;;7.18;100.00
38900;BME280;24660;43.238;26.576;2022-11-15T01:41:05;100192.25;;;7.09;100.00
38900;BME280;24660;43.238;26.576;2022-11-15T01:43:32;100189.41;;;7.12;100.00
38900;BME280;24660;43.238;26.576;2022-11-15T01:46:00;100189.88;;;7.36;100.00
38900;BME280;24660;43.238;26.576;2022-11-15T01:48:29;100184.88;;;7.14;100.00
38900;BME280;24660;43.238;26.576;2022-11-15T01:50:56;100180.66;;;7.10;100.00
38900;BME280;24660;43.238;26.576;2022-11-15T01:53:21;100180.59;;;7.12;100.00
38900;BME280;24660;43.238;26.576;2022-11-15T01:55:48;100180.25;;;7.18;100.00
38900;BME280;24660;43.238;26.576;2022-11-15T01:58:13;100169.75;;;6.99;100.00
38900;BME280;24660;43.238;26.576;2022-11-15T02:00:39;100170.97;;;7.09;100.00
38900;BME280;24660;43.238;26.576;2022-11-15T02:03:04;100172.28;;;7.18;100.00
38900;BME280;24660;43.238;26.576;2022-11-15T02:05:30;100179.06;;;7.24;100.00
38900;BME280;24660;43.238;26.576;2022-11-15T02:07:55;100175.44;;;7.25;100.00
38900;BME280;24660;43.238;26.576;2022-11-15T02:10:22;100173.28;;;7.15;100.00
38900;BME280;24660;43.238;26.576;2022-11-15T02:12:48;100170.63;;;7.00;100.00
38900;BME280;24660;43.238;26.576;2022-11-15T02:15:14;100166.50;;;6.94;100.00
38900;BME280;24660;43.238;26.576;2022-11-15T02:17:44;100166.16;;;7.00;100.00
38900;BME280;24660;43.238;26.576;2022-11-15T02:23:04;100178.28;;;7.06;100.00
38900;BME280;24660;43.238;26.576;2022-11-15T02:28:27;100165.06;;;7.04;100.00
38900;BME280;24660;43.238;26.576;2022-11-15T02:33:42;100153.31;;;7.08;100.00
38900;BME280;24660;43.238;26.576;2022-11-15T02:37:16;100146.69;;;6.84;100.00
38900;BME280;24660;43.238;26.576;2022-11-15T02:41:25;100154.94;;;6.95;100.00
38900;BME280;24660;43.238;26.576;2022-11-15T02:44:04;100152.34;;;6.94;100.00
38900;BME280;24660;43.238;26.576;2022-11-15T02:46:40;100155.59;;;6.99;100.00
38900;BME280;24660;43.238;26.576;2022-11-15T02:49:22;100156.91;;;7.07;100.00
38900;BME280;24660;43.238;26.576;2022-11-15T02:51:50;100160.75;;;7.02;100.00
38900;BME280;24660;43.238;26.576;2022-11-15T02:54:20;100148.75;;;7.10;100.00
38900;BME280;24660;43.238;26.576;2022-11-15T02:56:47;100147.66;;;7.14;100.00
38900;BME280;24660;43.238;26.576;2022-11-15T02:59:20;100146.38;;;7.06;100.00
38900;BME280;24660;43.238;26.576;2022-11-15T03:06:57;100147.53;;;7.00;100.00
38900;BME280;24660;43.238;26.576;2022-11-15T03:09:32;100138.22;;;6.93;100.00
38900;BME280;24660;43.238;26.576;2022-11-15T03:12:00;100143.72;;;7.06;100.00
38900;BME280;24660;43.238;26.576;2022-11-15T03:14:29;100140.63;;;7.13;100.00
38900;BME280;24660;43.238;26.576;2022-11-15T03:22:02;100133.75;;;6.94;100.00
38900;BME280;24660;43.238;26.576;2022-11-15T03:24:29;100140.78;;;7.10;100.00
38900;BME280;24660;43.238;26.576;2022-11-15T03:26:56;100129.81;;;7.01;100.00
38900;BME280;24660;43.238;26.576;2022-11-15T03:29:26;100123.63;;;7.00;100.00
38900;BME280;24660;43.238;26.576;2022-11-15T03:31:55;100126.19;;;7.02;100.00
38900;BME280;24660;43.238;26.576;2022-11-15T03:34:26;100122.00;;;6.82;100.00
38900;BME280;24660;43.238;26.576;2022-11-15T03:36:53;100123.44;;;6.88;100.00
38900;BME280;24660;43.238;26.576;2022-11-15T03:39:18;100116.31;;;6.88;100.00
38900;BME280;24660;43.238;26.576;2022-11-15T03:41:49;100116.22;;;6.74;100.00
38900;BME280;24660;43.238;26.576;2022-11-15T03:44:26;100121.56;;;6.90;100.00
38900;BME280;24660;43.238;26.576;2022-11-15T03:49:38;100117.53;;;6.98;100.00
38900;BME280;24660;43.238;26.576;2022-11-15T03:52:06;100117.63;;;6.97;100.00
38900;BME280;24660;43.238;26.576;2022-11-15T03:54:32;100108.03;;;6.78;100.00
38900;BME280;24660;43.238;26.576;2022-11-15T03:56:57;100105.09;;;6.83;100.00
38900;BME280;24660;43.238;26.576;2022-11-15T03:59:23;100104.69;;;6.91;100.00
38900;BME280;24660;43.238;26.576;2022-11-15T04:01:48;100105.00;;;6.84;100.00
38900;BME280;24660;43.238;26.576;2022-11-15T04:04:13;100100.06;;;6.78;100.00
38900;BME280;24660;43.238;26.576;2022-11-15T04:06:39;100088.47;;;6.95;100.00
38900;BME280;24660;43.238;26.576;2022-11-15T04:09:04;100091.50;;;7.05;100.00
38900;BME280;24660;43.238;26.576;2022-11-15T04:11:29;100083.75;;;6.84;100.00
38900;BME280;24660;43.238;26.576;2022-11-15T04:13:55;100086.41;;;7.00;100.00
38900;BME280;24660;43.238;26.576;2022-11-15T04:16:20;100086.13;;;6.73;100.00
38900;BME280;24660;43.238;26.576;2022-11-15T04:18:45;100083.84;;;6.83;100.00
38900;BME280;24660;43.238;26.576;2022-11-15T04:21:31;100084.78;;;6.82;100.00
38900;BME280;24660;43.238;26.576;2022-11-15T04:24:11;100077.69;;;6.82;100.00
38900;BME280;24660;43.238;26.576;2022-11-15T04:26:37;100083.75;;;6.69;100.00
38900;BME280;24660;43.238;26.576;2022-11-15T04:29:03;100080.75;;;6.75;100.00
38900;BME280;24660;43.238;26.576;2022-11-15T04:31:43;100081.28;;;6.81;100.00
38900;BME280;24660;43.238;26.576;2022-11-15T04:34:09;100075.59;;;6.88;100.00
38900;BME280;24660;43.238;26.576;2022-11-15T04:36:34;100073.03;;;6.86;100.00
38900;BME280;24660;43.238;26.576;2022-11-15T04:39:15;100071.31;;;6.85;100.00
38900;BME280;24660;43.238;26.576;2022-11-15T04:41:40;100080.41;;;6.81;100.00
38900;BME280;24660;43.238;26.576;2022-11-15T04:44:05;100080.69;;;6.76;100.00
38900;BME280;24660;43.238;26.576;2022-11-15T04:46:30;100075.44;;;6.75;100.00
38900;BME280;24660;43.238;26.576;2022-11-15T04:48:56;100074.34;;;6.79;100.00
38900;BME280;24660;43.238;26.576;2022-11-15T04:51:21;100079.38;;;6.68;100.00
38900;BME280;24660;43.238;26.576;2022-11-15T04:53:46;100084.09;;;6.63;100.00
38900;BME280;24660;43.238;26.576;2022-11-15T04:56:12;100077.47;;;6.54;100.00
38900;BME280;24660;43.238;26.576;2022-11-15T04:58:37;100082.69;;;6.55;100.00
38900;BME280;24660;43.238;26.576;2022-11-15T05:01:06;100089.63;;;6.58;100.00
38900;BME280;24660;43.238;26.576;2022-11-15T05:03:32;100095.88;;;6.57;100.00
38900;BME280;24660;43.238;26.576;2022-11-15T05:06:12;100090.06;;;6.50;100.00
38900;BME280;24660;43.238;26.576;2022-11-15T05:08:38;100081.81;;;6.39;100.00
38900;BME280;24660;43.238;26.576;2022-11-15T05:11:03;100091.88;;;6.50;100.00
38900;BME280;24660;43.238;26.576;2022-11-15T05:13:28;100090.84;;;6.52;100.00
38900;BME280;24660;43.238;26.576;2022-11-15T05:15:54;100080.09;;;6.38;100.00
38900;BME280;24660;43.238;26.576;2022-11-15T05:18:19;100084.97;;;6.46;100.00
38900;BME280;24660;43.238;26.576;2022-11-15T05:20:44;100088.09;;;6.54;100.00
38900;BME280;24660;43.238;26.576;2022-11-15T05:23:09;100090.19;;;6.65;100.00
38900;BME280;24660;43.238;26.576;2022-11-15T05:25:35;100084.78;;;6.66;100.00
38900;BME280;24660;43.238;26.576;2022-11-15T05:28:01;100087.44;;;6.82;100.00
38900;BME280;24660;43.238;26.576;2022-11-15T05:30:26;100081.53;;;6.77;100.00
38900;BME280;24660;43.238;26.576;2022-11-15T05:32:51;100086.69;;;6.80;100.00
38900;BME280;24660;43.238;26.576;2022-11-15T05:35:25;100083.38;;;6.59;100.00
38900;BME280;24660;43.238;26.576;2022-11-15T05:37:54;100070.47;;;6.84;100.00
38900;BME280;24660;43.238;26.576;2022-11-15T05:40:20;100072.94;;;6.56;100.00
38900;BME280;24660;43.238;26.576;2022-11-15T05:42:45;100081.09;;;6.84;100.00
38900;BME280;24660;43.238;26.576;2022-11-15T05:45:11;100074.94;;;7.00;100.00
38900;BME280;24660;43.238;26.576;2022-11-15T05:47:36;100076.91;;;6.96;100.00
38900;BME280;24660;43.238;26.576;2022-11-15T05:50:03;100074.34;;;6.95;100.00
38900;BME280;24660;43.238;26.576;2022-11-15T05:52:29;100076.72;;;6.99;100.00
38900;BME280;24660;43.238;26.576;2022-11-15T05:54:56;100075.19;;;6.95;100.00
38900;BME280;24660;43.238;26.576;2022-11-15T05:57:22;100077.00;;;7.10;100.00
38900;BME280;24660;43.238;26.576;2022-11-15T05:59:47;100071.09;;;7.05;100.00
38900;BME280;24660;43.238;26.576;2022-11-15T06:02:12;100075.97;;;6.97;100.00
38900;BME280;24660;43.238;26.576;2022-11-15T06:04:38;100077.00;;;6.95;100.00
38900;BME280;24660;43.238;26.576;2022-11-15T06:07:03;100069.44;;;7.34;100.00
38900;BME280;24660;43.238;26.576;2022-11-15T06:09:28;100065.44;;;7.41;100.00
38900;BME280;24660;43.238;26.576;2022-11-15T06:11:54;100068.00;;;7.43;100.00
38900;BME280;24660;43.238;26.576;2022-11-15T06:14:19;100075.50;;;7.36;100.00
38900;BME280;24660;43.238;26.576;2022-11-15T06:16:44;100072.75;;;7.38;100.00
38900;BME280;24660;43.238;26.576;2022-11-15T06:19:10;100071.44;;;7.45;100.00
38900;BME280;24660;43.238;26.576;2022-11-15T06:21:35;100070.97;;;7.68;100.00
38900;BME280;24660;43.238;26.576;2022-11-15T06:24:00;100069.25;;;7.67;100.00
38900;BME280;24660;43.238;26.576;2022-11-15T06:26:26;100057.84;;;7.65;100.00
38900;BME280;24660;43.238;26.576;2022-11-15T06:28:52;100069.28;;;7.82;100.00
38900;BME280;24660;43.238;26.576;2022-11-15T06:31:18;100051.00;;;7.61;100.00
38900;BME280;24660;43.238;26.576;2022-11-15T06:33:44;100055.00;;;7.68;100.00
38900;BME280;24660;43.238;26.576;2022-11-15T06:36:10;100061.47;;;7.64;100.00
38900;BME280;24660;43.238;26.576;2022-11-15T06:38:38;100062.03;;;7.39;100.00
38900;BME280;24660;43.238;26.576;2022-11-15T06:41:05;100066.91;;;7.47;100.00
38900;BME280;24660;43.238;26.576;2022-11-15T06:43:31;100064.16;;;7.49;100.00
38900;BME280;24660;43.238;26.576;2022-11-15T06:45:59;100066.72;;;7.50;100.00
38900;BME280;24660;43.238;26.576;2022-11-15T06:48:25;100065.06;;;7.63;100.00
38900;BME280;24660;43.238;26.576;2022-11-15T06:50:52;100057.72;;;7.53;100.00
38900;BME280;24660;43.238;26.576;2022-11-15T06:53:17;100062.44;;;7.48;100.00
38900;BME280;24660;43.238;26.576;2022-11-15T06:55:42;100069.72;;;7.44;100.00
38900;BME280;24660;43.238;26.576;2022-11-15T06:58:08;100079.75;;;7.55;100.00
38900;BME280;24660;43.238;26.576;2022-11-15T07:00:33;100067.97;;;7.59;100.00
38900;BME280;24660;43.238;26.576;2022-11-15T07:03:00;100064.88;;;7.66;100.00
38900;BME280;24660;43.238;26.576;2022-11-15T07:05:26;100061.19;;;7.69;100.00
38900;BME280;24660;43.238;26.576;2022-11-15T07:07:52;100057.88;;;7.80;100.00
38900;BME280;24660;43.238;26.576;2022-11-15T07:10:18;100055.81;;;7.99;100.00
38900;BME280;24660;43.238;26.576;2022-11-15T07:12:46;100046.44;;;8.22;100.00
38900;BME280;24660;43.238;26.576;2022-11-15T07:15:14;100053.38;;;8.10;100.00
38900;BME280;24660;43.238;26.576;2022-11-15T07:17:39;100056.78;;;7.98;100.00
38900;BME280;24660;43.238;26.576;2022-11-15T07:20:05;100050.50;;;8.13;100.00
38900;BME280;24660;43.238;26.576;2022-11-15T07:22:30;100048.00;;;7.82;100.00
38900;BME280;24660;43.238;26.576;2022-11-15T07:24:55;100057.06;;;7.93;100.00
38900;BME280;24660;43.238;26.576;2022-11-15T07:27:21;100048.25;;;8.07;100.00
38900;BME280;24660;43.238;26.576;2022-11-15T07:29:49;100044.53;;;8.24;100.00
38900;BME280;24660;43.238;26.576;2022-11-15T07:32:14;100042.16;;;8.19;100.00
38900;BME280;24660;43.238;26.576;2022-11-15T07:34:40;100047.09;;;8.25;100.00
38900;BME280;24660;43.238;26.576;2022-11-15T07:37:05;100048.25;;;8.21;100.00
38900;BME280;24660;43.238;26.576;2022-11-15T07:39:31;100039.41;;;8.07;100.00
38900;BME280;24660;43.238;26.576;2022-11-15T07:42:04;100042.16;;;8.05;100.00
38900;BME280;24660;43.238;26.576;2022-11-15T07:44:44;100040.91;;;8.25;100.00
38900;BME280;24660;43.238;26.576;2022-11-15T07:47:10;100035.59;;;8.25;100.00
38900;BME280;24660;43.238;26.576;2022-11-15T07:49:35;100037.59;;;8.07;100.00
38900;BME280;24660;43.238;26.576;2022-11-15T07:52:00;100044.22;;;8.00;100.00
38900;BME280;24660;43.238;26.576;2022-11-15T07:54:25;100036.94;;;8.18;100.00
38900;BME280;24660;43.238;26.576;2022-11-15T07:56:51;100040.56;;;8.17;100.00
38900;BME280;24660;43.238;26.576;2022-11-15T07:59:16;100044.34;;;8.27;100.00
38900;BME280;24660;43.238;26.576;2022-11-15T08:01:41;100040.72;;;8.14;100.00
38900;BME280;24660;43.238;26.576;2022-11-15T08:04:07;100041.97;;;8.08;100.00
38900;BME280;24660;43.238;26.576;2022-11-15T08:09:52;100034.94;;;8.21;100.00
38900;BME280;24660;43.238;26.576;2022-11-15T08:12:17;100028.84;;;8.19;100.00
38900;BME280;24660;43.238;26.576;2022-11-15T08:14:43;100037.97;;;8.15;100.00
38900;BME280;24660;43.238;26.576;2022-11-15T08:17:08;100033.78;;;8.25;100.00
38900;BME280;24660;43.238;26.576;2022-11-15T08:19:34;100033.69;;;8.13;100.00
38900;BME280;24660;43.238;26.576;2022-11-15T08:21:59;100025.59;;;8.14;100.00
38900;BME280;24660;43.238;26.576;2022-11-15T08:24:25;100024.88;;;8.41;100.00
38900;BME280;24660;43.238;26.576;2022-11-15T08:26:51;100029.34;;;8.40;100.00
38900;BME280;24660;43.238;26.576;2022-11-15T08:29:16;100020.47;;;8.25;100.00
38900;BME280;24660;43.238;26.576;2022-11-15T08:31:42;100019.91;;;8.20;100.00
38900;BME280;24660;43.238;26.576;2022-11-15T08:34:07;100025.59;;;8.28;100.00
38900;BME280;24660;43.238;26.576;2022-11-15T08:36:33;100018.22;;;8.48;100.00
38900;BME280;24660;43.238;26.576;2022-11-15T08:38:58;100018.41;;;8.59;100.00
38900;BME280;24660;43.238;26.576;2022-11-15T08:41:28;100005.84;;;8.61;100.00
38900;BME280;24660;43.238;26.576;2022-11-15T08:43:55;100001.06;;;8.52;100.00
38900;BME280;24660;43.238;26.576;2022-11-15T08:46:20;100009.47;;;8.46;100.00
38900;BME280;24660;43.238;26.576;2022-11-15T08:48:45;99997.97;;;8.45;100.00
38900;BME280;24660;43.238;26.576;2022-11-15T08:51:11;99998.03;;;8.44;100.00
38900;BME280;24660;43.238;26.576;2022-11-15T08:53:36;99993.94;;;8.52;100.00
38900;BME280;24660;43.238;26.576;2022-11-15T08:56:02;99986.97;;;8.64;100.00
38900;BME280;24660;43.238;26.576;2022-11-15T08:58:27;99990.81;;;8.46;100.00
38900;BME280;24660;43.238;26.576;2022-11-15T09:00:53;99980.91;;;8.48;100.00
38900;BME280;24660;43.238;26.576;2022-11-15T09:03:18;99975.09;;;8.55;100.00
38900;BME280;24660;43.238;26.576;2022-11-15T09:05:43;99971.94;;;8.63;100.00
38900;BME280;24660;43.238;26.576;2022-11-15T09:08:09;99965.56;;;8.66;100.00
38900;BME280;24660;43.238;26.576;2022-11-15T09:10:39;99968.81;;;8.83;100.00
38900;BME280;24660;43.238;26.576;2022-11-15T09:13:04;99962.69;;;8.96;100.00
38900;BME280;24660;43.238;26.576;2022-11-15T09:15:32;99967.00;;;9.11;100.00
38900;BME280;24660;43.238;26.576;2022-11-15T09:17:58;99950.53;;;8.91;100.00
38900;BME280;24660;43.238;26.576;2022-11-15T09:20:24;99953.41;;;8.61;100.00
38900;BME280;24660;43.238;26.576;2022-11-15T09:22:53;99951.00;;;9.11;100.00
38900;BME280;24660;43.238;26.576;2022-11-15T09:25:28;99949.78;;;9.42;100.00
38900;BME280;24660;43.238;26.576;2022-11-15T09:27:54;99942.31;;;9.34;100.00
38900;BME280;24660;43.238;26.576;2022-11-15T09:30:19;99943.81;;;9.38;100.00
38900;BME280;24660;43.238;26.576;2022-11-15T09:32:45;99934.31;;;9.34;100.00
38900;BME280;24660;43.238;26.576;2022-11-15T09:35:10;99934.06;;;9.25;100.00
38900;BME280;24660;43.238;26.576;2022-11-15T09:37:35;99937.88;;;9.47;100.00
38900;BME280;24660;43.238;26.576;2022-11-15T09:40:01;99929.66;;;9.63;100.00
38900;BME280;24660;43.238;26.576;2022-11-15T09:49:59;99929.31;;;9.68;100.00
38900;BME280;24660;43.238;26.576;2022-11-15T09:52:26;99919.09;;;9.62;100.00
38900;BME280;24660;43.238;26.576;2022-11-15T09:54:52;99916.31;;;9.63;100.00
38900;BME280;24660;43.238;26.576;2022-11-15T09:57:20;99919.94;;;9.75;100.00
38900;BME280;24660;43.238;26.576;2022-11-15T09:59:49;99910.41;;;9.71;100.00
38900;BME280;24660;43.238;26.576;2022-11-15T10:05:02;99910.31;;;9.85;100.00
38900;BME280;24660;43.238;26.576;2022-11-15T10:13:32;99902.44;;;9.58;100.00
38900;BME280;24660;43.238;26.576;2022-11-15T10:19:28;99885.34;;;9.61;100.00
38900;BME280;24660;43.238;26.576;2022-11-15T10:30:54;99860.16;;;9.65;100.00
38900;BME280;24660;43.238;26.576;2022-11-15T10:36:38;99856.09;;;9.59;100.00
38900;BME280;24660;43.238;26.576;2022-11-15T10:39:03;99844.97;;;9.65;100.00
38900;BME280;24660;43.238;26.576;2022-11-15T10:46:36;99845.81;;;9.91;100.00
38900;BME280;24660;43.238;26.576;2022-11-15T10:49:12;99832.56;;;9.90;100.00
38900;BME280;24660;43.238;26.576;2022-11-15T10:51:40;99828.84;;;9.79;100.00
38900;BME280;24660;43.238;26.576;2022-11-15T10:54:06;99831.75;;;9.64;100.00
38900;BME280;24660;43.238;26.576;2022-11-15T10:56:35;99823.38;;;9.81;100.00
38900;BME280;24660;43.238;26.576;2022-11-15T10:59:01;99815.44;;;10.05;100.00
38900;BME280;24660;43.238;26.576;2022-11-15T11:01:26;99824.69;;;9.75;100.00
38900;BME280;24660;43.238;26.576;2022-11-15T11:03:59;99803.44;;;9.87;100.00
38900;BME280;24660;43.238;26.576;2022-11-15T11:06:25;99807.22;;;9.95;100.00
38900;BME280;24660;43.238;26.576;2022-11-15T11:08:55;99796.84;;;10.03;100.00
38900;BME280;24660;43.238;26.576;2022-11-15T11:11:20;99799.53;;;10.03;100.00
38900;BME280;24660;43.238;26.576;2022-11-15T11:13:46;99797.47;;;10.07;100.00
38900;BME280;24660;43.238;26.576;2022-11-15T11:16:17;99789.88;;;10.14;100.00
38900;BME280;24660;43.238;26.576;2022-11-15T11:21:31;99790.97;;;9.98;100.00
38900;BME280;24660;43.238;26.576;2022-11-15T11:24:06;99777.50;;;9.76;100.00
38900;BME280;24660;43.238;26.576;2022-11-15T11:29:02;99776.59;;;10.12;100.00
38900;BME280;24660;43.238;26.576;2022-11-15T11:31:38;99773.19;;;10.47;97.45
38900;BME280;24660;43.238;26.576;2022-11-15T11:39:51;99759.41;;;10.16;96.72
38900;BME280;24660;43.238;26.576;2022-11-15T11:42:04;99747.81;;;10.04;96.82
38900;BME280;24660;43.238;26.576;2022-11-15T11:49:38;99738.47;;;10.23;97.11
38900;BME280;24660;43.238;26.576;2022-11-15T11:52:16;99726.34;;;10.30;96.57
38900;BME280;24660;43.238;26.576;2022-11-15T11:54:55;99734.97;;;10.68;95.22
38900;BME280;24660;43.238;26.576;2022-11-15T11:57:25;99724.69;;;10.86;93.09
38900;BME280;24660;43.238;26.576;2022-11-15T11:59:56;99717.13;;;10.80;92.45
38900;BME280;24660;43.238;26.576;2022-11-15T12:02:27;99714.97;;;11.08;90.05
38900;BME280;24660;43.238;26.576;2022-11-15T12:04:56;99709.41;;;11.33;88.74
38900;BME280;24660;43.238;26.576;2022-11-15T12:07:25;99709.88;;;11.49;88.45
38900;BME280;24660;43.238;26.576;2022-11-15T12:09:55;99717.72;;;11.96;86.55
38900;BME280;24660;43.238;26.576;2022-11-15T12:15:04;99698.94;;;11.41;85.43
38900;BME280;24660;43.238;26.576;2022-11-15T12:17:35;99704.56;;;12.04;84.47
38900;BME280;24660;43.238;26.576;2022-11-15T12:20:03;99694.31;;;11.54;84.83
38900;BME280;24660;43.238;26.576;2022-11-15T12:22:39;99693.22;;;11.01;85.18
38900;BME280;24660;43.238;26.576;2022-11-15T12:30:14;99686.53;;;11.07;86.83
38900;BME280;24660;43.238;26.576;2022-11-15T12:32:48;99675.72;;;11.19;87.89
38900;BME280;24660;43.238;26.576;2022-11-15T12:37:55;99670.09;;;11.34;86.10
38900;BME280;24660;43.238;26.576;2022-11-15T12:40:25;99678.38;;;11.42;84.89
38900;BME280;24660;43.238;26.576;2022-11-15T12:51:08;99667.91;;;10.94;87.10
38900;BME280;24660;43.238;26.576;2022-11-15T12:53:34;99666.66;;;10.53;87.03
38900;BME280;24660;43.238;26.576;2022-11-15T13:06:50;99652.72;;;11.28;86.09
38900;BME280;24660;43.238;26.576;2022-11-15T13:11:57;99651.22;;;11.46;84.54
38900;BME280;24660;43.238;26.576;2022-11-15T13:19:46;99646.28;;;11.08;85.12
38900;BME280;24660;43.238;26.576;2022-11-15T13:22:12;99650.19;;;11.04;86.36
38900;BME280;24660;43.238;26.576;2022-11-15T13:24:52;99642.47;;;11.44;84.79
38900;BME280;24660;43.238;26.576;2022-11-15T13:27:28;99644.19;;;11.45;85.29
38900;BME280;24660;43.238;26.576;2022-11-15T13:29:53;99642.19;;;11.70;84.61
38900;BME280;24660;43.238;26.576;2022-11-15T13:32:19;99635.81;;;11.16;84.30
38900;BME280;24660;43.238;26.576;2022-11-15T13:34:46;99629.16;;;10.99;84.83
38900;BME280;24660;43.238;26.576;2022-11-15T13:37:26;99630.97;;;10.88;85.50
38900;BME280;24660;43.238;26.576;2022-11-15T13:39:52;99633.16;;;11.05;85.18
38900;BME280;24660;43.238;26.576;2022-11-15T13:42:18;99621.84;;;11.13;85.70
38900;BME280;24660;43.238;26.576;2022-11-15T13:47:25;99626.78;;;10.39;87.81
38900;BME280;24660;43.238;26.576;2022-11-15T13:49:52;99617.34;;;10.68;87.82
38900;BME280;24660;43.238;26.576;2022-11-15T13:52:17;99621.22;;;10.64;88.99
38900;BME280;24660;43.238;26.576;2022-11-15T13:57:25;99616.69;;;10.31;89.73
38900;BME280;24660;43.238;26.576;2022-11-15T13:59:53;99611.97;;;10.35;90.04
38900;BME280;24660;43.238;26.576;2022-11-15T14:02:21;99607.50;;;10.47;90.04
38900;BME280;24660;43.238;26.576;2022-11-15T14:04:52;99598.69;;;10.22;90.79
38900;BME280;24660;43.238;26.576;2022-11-15T14:07:20;99601.44;;;10.21;91.15
38900;BME280;24660;43.238;26.576;2022-11-15T14:09:46;99602.88;;;10.02;91.48
38900;BME280;24660;43.238;26.576;2022-11-15T14:14:52;99595.78;;;9.90;92.33
38900;BME280;24660;43.238;26.576;2022-11-15T14:17:20;99596.59;;;10.15;91.45
38900;BME280;24660;43.238;26.576;2022-11-15T14:19:45;99600.84;;;9.82;93.28
38900;BME280;24660;43.238;26.576;2022-11-15T14:22:13;99599.50;;;9.76;95.11
38900;BME280;24660;43.238;26.576;2022-11-15T14:24:40;99596.41;;;9.70;95.65
38900;BME280;24660;43.238;26.576;2022-11-15T14:29:46;99584.69;;;9.48;97.15
38900;BME280;24660;43.238;26.576;2022-11-15T14:32:14;99587.22;;;9.26;97.71
38900;BME280;24660;43.238;26.576;2022-11-15T14:34:39;99582.91;;;9.00;100.00
38900;BME280;24660;43.238;26.576;2022-11-15T14:37:07;99578.78;;;8.96;100.00
38900;BME280;24660;43.238;26.576;2022-11-15T14:39:33;99575.88;;;8.99;100.00
38900;BME280;24660;43.238;26.576;2022-11-15T14:41:58;99575.72;;;8.89;100.00
38900;BME280;24660;43.238;26.576;2022-11-15T14:44:23;99578.03;;;8.93;100.00
38900;BME280;24660;43.238;26.576;2022-11-15T14:46:49;99570.09;;;8.68;100.00
38900;BME280;24660;43.238;26.576;2022-11-15T14:49:14;99579.28;;;8.39;100.00
38900;BME280;24660;43.238;26.576;2022-11-15T14:51:40;99579.22;;;8.13;100.00